createdAt,value
2022-10-03T00:04:12.286Z,2.00
2022-10-03T00:09:40.772Z,2.80
2022-10-03T00:15:05.873Z,3.13
2022-10-03T00:20:31.167Z,3.60
2022-10-03T00:25:42.501Z,4.43
2022-10-03T00:30:56.712Z,4.77
2022-10-03T00:36:05.176Z,4.10
2022-10-03T00:41:16.213Z,2.90
2022-10-03T00:46:57.826Z,1.80
2022-10-03T00:52:42.118Z,1.77
2022-10-03T00:58:13.278Z,1.93
2022-10-03T01:03:21.717Z,3.47
2022-10-03T01:08:51.396Z,3.80
2022-10-03T01:14:22.556Z,2.60
2022-10-03T01:19:53.507Z,3.90
2022-10-03T01:25:02.317Z,3.40
2022-10-03T01:30:23.320Z,4.90
2022-10-03T01:35:31.758Z,4.03
2022-10-03T01:40:55.093Z,5.80
2022-10-03T01:46:09.129Z,4.93
2022-10-03T01:51:32.229Z,3.90
2022-10-03T01:56:49.813Z,4.67
2022-10-03T02:02:07.749Z,4.83
2022-10-03T02:07:35.298Z,3.40
2022-10-03T02:12:58.035Z,3.03
2022-10-03T02:18:23.846Z,2.53
2022-10-03T02:23:36.221Z,2.40
2022-10-03T02:28:54.899Z,1.03
2022-10-03T02:34:26.358Z,1.43
2022-10-03T02:39:51.597Z,1.53
2022-10-03T02:45:25.853Z,1.60
2022-10-03T02:50:46.263Z,1.60
2022-10-03T02:56:06.811Z,1.77
2022-10-03T03:01:35.368Z,1.53
2022-10-03T03:07:00.289Z,1.80
2022-10-03T03:12:11.574Z,1.70
2022-10-03T03:17:36.693Z,2.10
2022-10-03T03:22:56.932Z,1.33
2022-10-03T03:28:14.433Z,1.80
2022-10-03T03:33:31.755Z,1.50
2022-10-03T03:38:45.765Z,2.07
2022-10-03T03:44:04.202Z,1.63
2022-10-03T03:49:16.623Z,2.83
2022-10-03T03:54:46.285Z,2.43
2022-10-03T04:00:15.902Z,2.13
2022-10-03T04:05:36.269Z,1.73
2022-10-03T04:10:47.612Z,1.80
2022-10-03T04:16:20.754Z,2.10
2022-10-03T04:21:47.921Z,2.20
2022-10-03T04:27:05.214Z,1.93
2022-10-03T04:32:13.725Z,2.10
2022-10-03T04:37:37.242Z,2.57
2022-10-03T04:43:01.130Z,2.57
2022-10-03T04:48:18.556Z,2.47
2022-10-03T04:53:58.520Z,2.63
2022-10-03T04:59:12.531Z,2.60
2022-10-03T05:04:20.978Z,3.27
2022-10-03T05:09:30.554Z,3.23
2022-10-03T05:14:44.811Z,3.40
2022-10-03T05:19:53.242Z,3.80
2022-10-03T05:25:20.659Z,4.13
2022-10-03T05:30:48.815Z,3.97
2022-10-03T05:36:06.428Z,4.60
2022-10-03T05:41:25.761Z,3.10
2022-10-03T05:46:58.424Z,3.47
2022-10-03T05:52:26.514Z,4.73
2022-10-03T05:57:49.621Z,3.90
2022-10-03T06:03:13.598Z,3.77
2022-10-03T06:08:41.516Z,3.40
2022-10-03T06:14:14.551Z,2.43
2022-10-03T06:19:38.276Z,2.67
2022-10-03T06:25:14.230Z,2.20
2022-10-03T06:30:25.616Z,2.40
2022-10-03T06:35:48.986Z,2.00
2022-10-03T06:40:57.503Z,1.87
2022-10-03T06:46:17.848Z,2.20
2022-10-03T06:51:43.202Z,2.53
2022-10-03T06:57:11.292Z,2.93
2022-10-03T07:02:19.846Z,2.50
2022-10-03T07:07:48.458Z,2.73
2022-10-03T07:13:14.648Z,2.33
2022-10-03T07:18:48.995Z,2.23
2022-10-03T07:24:03.635Z,1.80
2022-10-03T07:29:23.645Z,2.10
2022-10-03T07:34:40.869Z,2.50
2022-10-03T07:40:10.644Z,1.90
2022-10-03T07:45:40.971Z,2.07
2022-10-03T07:51:17.959Z,1.97
2022-10-03T07:56:50.488Z,2.10
2022-10-03T08:02:01.476Z,2.20
2022-10-03T08:07:15.923Z,2.13
2022-10-03T08:12:34.120Z,1.90
2022-10-03T08:18:06.749Z,1.97
2022-10-03T08:23:41.860Z,2.20
2022-10-03T08:28:53.164Z,2.60
2022-10-03T08:34:18.769Z,1.97
2022-10-03T08:40:00.535Z,1.90
2022-10-03T08:45:14.975Z,2.20
2022-10-03T08:50:29.600Z,1.43
2022-10-03T08:55:43.531Z,1.60
2022-10-03T09:01:13.504Z,2.17
2022-10-03T09:06:58.689Z,2.07
2022-10-03T09:12:06.633Z,2.10
2022-10-03T09:17:21.259Z,2.10
2022-10-03T09:22:35.415Z,2.20
2022-10-03T09:27:52.957Z,1.87
2022-10-03T09:33:25.110Z,2.57
2022-10-03T09:38:56.237Z,1.80
2022-10-03T09:44:33.444Z,2.17
2022-10-03T09:50:01.262Z,1.60
2022-10-03T09:55:30.539Z,1.90
2022-10-03T10:00:39.270Z,3.63
2022-10-03T10:05:50.657Z,1.90
2022-10-03T10:11:16.757Z,1.83
2022-10-03T10:16:34.154Z,2.20
2022-10-03T10:21:57.585Z,1.60
2022-10-03T10:27:42.047Z,1.83
2022-10-03T10:33:16.650Z,2.03
2022-10-03T10:38:31.133Z,3.10
2022-10-03T10:44:11.549Z,1.97
2022-10-03T10:49:36.508Z,2.03
2022-10-03T10:54:49.219Z,1.63
2022-10-03T11:00:16.037Z,2.13
2022-10-03T11:05:45.583Z,1.90
2022-10-03T11:11:22.767Z,1.37
2022-10-03T11:16:50.562Z,1.50
2022-10-03T11:22:19.332Z,1.70
2022-10-03T11:27:48.618Z,2.03
2022-10-03T11:33:15.086Z,1.90
2022-10-03T11:38:26.188Z,1.37
2022-10-03T11:43:45.383Z,1.70
2022-10-03T11:48:59.664Z,1.57
2022-10-03T11:54:31.838Z,1.73
2022-10-03T11:59:54.373Z,1.53
2022-10-03T12:05:18.002Z,1.73
2022-10-03T12:10:44.911Z,1.90
2022-10-03T12:15:54.446Z,1.60
2022-10-03T12:21:20.963Z,1.47
2022-10-03T12:26:25.785Z,1.60
2022-10-03T12:31:35.878Z,1.60
2022-10-03T12:36:53.556Z,1.93
2022-10-03T12:42:14.859Z,1.30
2022-10-03T12:47:56.766Z,1.67
2022-10-03T12:53:02.573Z,1.30
2022-10-03T12:58:19.724Z,1.33
2022-10-03T13:03:50.141Z,2.10
2022-10-03T13:09:22.799Z,1.53
2022-10-03T13:14:46.504Z,1.83
2022-10-03T13:19:57.603Z,1.70
2022-10-03T13:25:06.105Z,1.73
2022-10-03T13:30:20.219Z,1.73
2022-10-03T13:35:53.315Z,1.60
2022-10-03T13:41:26.275Z,1.70
2022-10-03T13:46:42.301Z,1.37
2022-10-03T13:51:54.041Z,1.70
2022-10-03T13:57:02.549Z,1.63
2022-10-03T14:02:20.183Z,1.80
2022-10-03T14:07:55.460Z,1.63
2022-10-03T14:13:03.968Z,1.77
2022-10-03T14:18:21.489Z,1.67
2022-10-03T14:23:45.506Z,2.90
2022-10-03T14:29:29.246Z,1.60
2022-10-03T14:34:41.013Z,1.47
2022-10-03T14:39:58.565Z,1.70
2022-10-03T14:45:06.561Z,2.00
2022-10-03T14:50:23.846Z,2.57
2022-10-03T14:55:41.295Z,1.70
2022-10-03T15:00:49.711Z,1.77
2022-10-03T15:06:06.072Z,1.60
2022-10-03T15:11:13.980Z,1.50
2022-10-03T15:16:22.819Z,2.30
2022-10-03T15:21:29.677Z,1.77
2022-10-03T15:26:38.406Z,1.87
2022-10-03T15:31:48.680Z,2.10
2022-10-03T15:36:57.229Z,1.60
2022-10-03T15:42:12.096Z,2.30
2022-10-03T15:47:20.538Z,1.93
2022-10-03T15:52:28.965Z,1.80
2022-10-03T15:57:40.236Z,2.07
2022-10-03T16:02:50.348Z,1.97
2022-10-03T16:08:04.388Z,1.77
2022-10-03T16:13:35.590Z,1.73
2022-10-03T16:18:55.992Z,2.07
2022-10-03T16:24:04.414Z,2.30
2022-10-03T16:29:12.829Z,2.60
2022-10-03T16:34:21.219Z,1.97
2022-10-03T16:39:29.639Z,1.90
2022-10-03T16:44:49.863Z,1.57
2022-10-03T16:50:18.511Z,2.50
2022-10-03T16:55:29.932Z,2.10
2022-10-03T17:00:40.932Z,2.13
2022-10-03T17:05:48.559Z,1.77
2022-10-03T17:11:02.887Z,2.10
2022-10-03T17:16:28.177Z,2.00
2022-10-03T17:21:35.697Z,2.63
2022-10-03T17:26:47.247Z,2.00
2022-10-03T17:32:17.367Z,2.37
2022-10-03T17:37:42.161Z,2.57
2022-10-03T17:43:00.266Z,2.40
2022-10-03T17:48:31.149Z,2.53
2022-10-03T17:53:39.486Z,2.40
2022-10-03T17:58:51.242Z,2.37
2022-10-03T18:04:01.101Z,2.23
2022-10-03T18:09:12.483Z,2.13
2022-10-03T18:14:56.088Z,3.10
2022-10-03T18:20:13.755Z,2.77
2022-10-03T18:31:11.930Z,3.13
2022-10-03T18:36:25.914Z,3.17
2022-10-03T18:41:31.730Z,2.87
2022-10-03T18:46:46.571Z,2.30
2022-10-03T18:51:55.005Z,2.40
2022-10-03T18:57:19.886Z,2.10
2022-10-03T19:02:40.158Z,2.27
2022-10-03T19:07:48.664Z,2.70
2022-10-03T19:13:03.105Z,2.57
2022-10-03T19:18:17.110Z,2.03
2022-10-03T19:23:28.365Z,2.00
2022-10-03T19:29:03.135Z,2.30
2022-10-03T19:34:20.734Z,1.80
2022-10-03T19:39:29.449Z,2.40
2022-10-03T19:44:35.105Z,1.90
2022-10-03T19:49:53.302Z,1.90
2022-10-03T19:55:04.384Z,2.03
2022-10-03T20:00:18.532Z,1.70
2022-10-03T20:05:30.550Z,2.33
2022-10-03T20:10:50.928Z,2.40
2022-10-03T20:15:58.979Z,2.73
2022-10-03T20:21:07.650Z,2.03
2022-10-03T20:26:25.434Z,3.07
2022-10-03T20:31:33.120Z,2.00
2022-10-03T20:36:41.964Z,2.50
2022-10-03T20:42:02.762Z,2.77
2022-10-03T20:47:29.126Z,1.97
2022-10-03T20:52:36.237Z,2.30
2022-10-03T20:57:47.478Z,2.63
2022-10-03T21:03:10.838Z,2.07
2022-10-03T21:08:28.231Z,2.17
2022-10-03T21:13:47.771Z,1.90
2022-10-03T21:18:56.261Z,1.70
2022-10-03T21:24:16.941Z,1.93
2022-10-03T21:29:31.388Z,2.43
2022-10-03T21:34:55.049Z,2.00
2022-10-03T21:40:23.033Z,2.53
2022-10-03T21:45:46.462Z,2.50
2022-10-03T21:50:57.641Z,2.37
2022-10-03T21:56:09.399Z,1.70
2022-10-03T22:01:39.454Z,2.27
2022-10-03T22:07:04.517Z,2.00
2022-10-03T22:12:11.660Z,2.03
2022-10-03T22:17:32.435Z,2.10
2022-10-03T22:22:58.999Z,2.13
2022-10-03T22:28:13.440Z,3.30
2022-10-03T22:33:30.858Z,2.00
2022-10-03T22:38:37.473Z,2.17
2022-10-03T22:43:44.868Z,2.10
2022-10-03T22:48:53.296Z,1.93
2022-10-03T22:54:01.762Z,2.07
2022-10-03T22:59:10.525Z,1.97
2022-10-03T23:04:23.399Z,1.77
2022-10-03T23:09:35.142Z,2.27
2022-10-03T23:14:43.904Z,1.90
2022-10-03T23:20:18.425Z,1.90
2022-10-03T23:25:36.851Z,2.70
2022-10-03T23:30:48.039Z,1.97
2022-10-03T23:35:55.401Z,1.73
2022-10-03T23:41:06.557Z,2.00
2022-10-03T23:46:18.805Z,1.67
2022-10-03T23:51:27.484Z,2.50
2022-10-03T23:56:48.045Z,2.10
